Pagrindinis puslapis
METAR-TAF:

METAR-TAF

Oro uostai :

Mikelis, Suomija

platuma: 61-44N, ilguma: 027-18E, Aukštis: 138 m

Dabartinis oras

Ataskaita buvo paskelbta 36 minutes, ne 05:50 UTC
Vėjas 4 kt nuo kintamojo kryptimis
Temperatūra 0°C
Drėgmė 64%
Slėgis 1014 hPa
Matomumas 10 km arba daugiau
nėra debesų žemiau 1500 m ir nėra kamuolinių lietaus debesų

METAR: EFMI 100550Z AUTO VRB04KT CAVOK 00/M06 Q1014

Laikas: 09:26 (06:26 UTC)


TAF: trūkstamas

Orai ataskaitas ir orų prognozės (METAR, TAF).

turimą stotys yra geltonos ir raudonos taškus žemėlapyje.

Perkelti pele per norėdami pamatyti stoties vardą.

Tada spustelėkite, norėdami matyti oro stebėjimo ir prognozės.

Norėdami pakeisti žemėlapį: spustelėkite ant žalios mygtukų su juodo kryžiaus žemyn,; žalią mygtuką su brūkšneliu, jei norite nutolinti; arba žalių rodyklių gretimoms žemėlapius.


METAR-TAF: